Carmichael, California
Current Conditions -  °F | °C
As of 5:45 AM on Monday 20 Oct 2014 (Local Time) from KMHR Reporting Station
Clear Clear  
Wind Chill: 55°   Ceiling: Unl
Heat Index: 55°   Visibility: 10mi
Dew Point: 55°   Wind: 7mph
Humidity: 100%   Direction: 140°SE
Pressure: 29.9"   Gusts: NA
Location:  38.63°N, 121.32°W
Report Text: KMHR 201245Z 14006KT 10SM SKC 13/13 A2990
Loading
Personal Weather Stations






























Interactive Weather Map
Tropical Storm Tracking
New forecast layout! Learn more

10-Day Weather Forecast

Advertisements
Track Severe Weather on mobile